sensor_id;sensor_type;location;lat;lon;timestamp;P1;durP1;ratioP1;P2;durP2;ratioP2
17866;SDS011;9059;49.934;8.650;2024-01-25T00:01:15;11.02;;;2.03;;
17866;SDS011;9059;49.934;8.650;2024-01-25T00:11:18;18.67;;;1.85;;
17866;SDS011;9059;49.934;8.650;2024-01-25T00:21:22;7.45;;;1.63;;
17866;SDS011;9059;49.934;8.650;2024-01-25T00:31:25;9.93;;;1.70;;
17866;SDS011;9059;49.934;8.650;2024-01-25T00:41:30;11.98;;;1.77;;
17866;SDS011;9059;49.934;8.650;2024-01-25T00:51:34;9.25;;;1.42;;
17866;SDS011;9059;49.934;8.650;2024-01-25T01:01:40;14.90;;;1.63;;
17866;SDS011;9059;49.934;8.650;2024-01-25T01:11:44;9.73;;;1.70;;
17866;SDS011;9059;49.934;8.650;2024-01-25T01:21:48;14.43;;;1.35;;
17866;SDS011;9059;49.934;8.650;2024-01-25T01:31:52;10.07;;;1.80;;
17866;SDS011;9059;49.934;8.650;2024-01-25T01:41:56;8.80;;;1.67;;
17866;SDS011;9059;49.934;8.650;2024-01-25T01:51:59;8.15;;;1.48;;
17866;SDS011;9059;49.934;8.650;2024-01-25T02:02:04;9.18;;;1.17;;
17866;SDS011;9059;49.934;8.650;2024-01-25T02:12:08;9.40;;;1.65;;
17866;SDS011;9059;49.934;8.650;2024-01-25T02:32:22;12.77;;;1.90;;
17866;SDS011;9059;49.934;8.650;2024-01-25T02:42:26;8.05;;;1.08;;
17866;SDS011;9059;49.934;8.650;2024-01-25T02:52:29;5.53;;;1.13;;
17866;SDS011;9059;49.934;8.650;2024-01-25T03:02:33;6.07;;;1.30;;
17866;SDS011;9059;49.934;8.650;2024-01-25T03:12:36;7.45;;;1.35;;
17866;SDS011;9059;49.934;8.650;2024-01-25T03:22:40;11.45;;;1.33;;
17866;SDS011;9059;49.934;8.650;2024-01-25T03:32:43;15.30;;;2.15;;
17866;SDS011;9059;49.934;8.650;2024-01-25T03:42:50;15.18;;;1.83;;
17866;SDS011;9059;49.934;8.650;2024-01-25T03:53:12;16.05;;;1.55;;
17866;SDS011;9059;49.934;8.650;2024-01-25T04:03:17;11.40;;;1.77;;
17866;SDS011;9059;49.934;8.650;2024-01-25T04:13:20;15.73;;;1.95;;
17866;SDS011;9059;49.934;8.650;2024-01-25T04:23:24;12.77;;;1.93;;
17866;SDS011;9059;49.934;8.650;2024-01-25T04:33:27;19.42;;;2.97;;
17866;SDS011;9059;49.934;8.650;2024-01-25T04:43:34;12.63;;;1.30;;
17866;SDS011;9059;49.934;8.650;2024-01-25T04:53:38;13.75;;;1.58;;
17866;SDS011;9059;49.934;8.650;2024-01-25T05:03:42;12.00;;;1.43;;
17866;SDS011;9059;49.934;8.650;2024-01-25T05:13:45;7.88;;;1.25;;
17866;SDS011;9059;49.934;8.650;2024-01-25T05:23:50;19.05;;;1.75;;
17866;SDS011;9059;49.934;8.650;2024-01-25T05:33:52;13.43;;;2.00;;
17866;SDS011;9059;49.934;8.650;2024-01-25T05:43:57;12.87;;;1.80;;
17866;SDS011;9059;49.934;8.650;2024-01-25T05:54:00;11.32;;;1.92;;
17866;SDS011;9059;49.934;8.650;2024-01-25T06:04:04;14.80;;;2.17;;
17866;SDS011;9059;49.934;8.650;2024-01-25T06:14:07;9.15;;;1.90;;
17866;SDS011;9059;49.934;8.650;2024-01-25T06:24:12;17.17;;;1.90;;
17866;SDS011;9059;49.934;8.650;2024-01-25T06:34:15;10.97;;;1.80;;
17866;SDS011;9059;49.934;8.650;2024-01-25T06:44:19;15.43;;;1.73;;
17866;SDS011;9059;49.934;8.650;2024-01-25T06:54:22;12.40;;;1.67;;
17866;SDS011;9059;49.934;8.650;2024-01-25T07:04:26;9.57;;;1.63;;
17866;SDS011;9059;49.934;8.650;2024-01-25T07:14:30;13.60;;;2.30;;
17866;SDS011;9059;49.934;8.650;2024-01-25T07:24:34;11.87;;;1.60;;
17866;SDS011;9059;49.934;8.650;2024-01-25T07:34:37;12.83;;;1.80;;
17866;SDS011;9059;49.934;8.650;2024-01-25T07:44:41;11.10;;;1.80;;
17866;SDS011;9059;49.934;8.650;2024-01-25T07:54:45;7.73;;;1.60;;
17866;SDS011;9059;49.934;8.650;2024-01-25T08:04:49;11.03;;;1.80;;
17866;SDS011;9059;49.934;8.650;2024-01-25T08:14:52;13.77;;;2.05;;
17866;SDS011;9059;49.934;8.650;2024-01-25T08:24:57;19.88;;;2.38;;
17866;SDS011;9059;49.934;8.650;2024-01-25T08:35:01;17.33;;;2.10;;
17866;SDS011;9059;49.934;8.650;2024-01-25T08:45:06;14.63;;;1.90;;
17866;SDS011;9059;49.934;8.650;2024-01-25T08:55:10;20.70;;;3.10;;
17866;SDS011;9059;49.934;8.650;2024-01-25T09:05:14;17.63;;;2.20;;
17866;SDS011;9059;49.934;8.650;2024-01-25T09:15:18;16.10;;;2.78;;
17866;SDS011;9059;49.934;8.650;2024-01-25T09:25:22;9.35;;;1.98;;
17866;SDS011;9059;49.934;8.650;2024-01-25T09:35:25;10.85;;;1.70;;
17866;SDS011;9059;49.934;8.650;2024-01-25T09:45:30;13.23;;;2.38;;
17866;SDS011;9059;49.934;8.650;2024-01-25T09:55:34;15.10;;;2.42;;
17866;SDS011;9059;49.934;8.650;2024-01-25T10:05:41;10.48;;;1.65;;
17866;SDS011;9059;49.934;8.650;2024-01-25T10:15:44;11.68;;;1.70;;
17866;SDS011;9059;49.934;8.650;2024-01-25T10:25:49;16.92;;;2.10;;
17866;SDS011;9059;49.934;8.650;2024-01-25T10:35:53;23.95;;;1.88;;
17866;SDS011;9059;49.934;8.650;2024-01-25T10:45:59;17.15;;;2.28;;
17866;SDS011;9059;49.934;8.650;2024-01-25T10:56:05;22.95;;;2.55;;
17866;SDS011;9059;49.934;8.650;2024-01-25T11:06:10;16.50;;;2.75;;
17866;SDS011;9059;49.934;8.650;2024-01-25T11:16:14;14.35;;;1.88;;
17866;SDS011;9059;49.934;8.650;2024-01-25T11:26:19;20.17;;;2.88;;
17866;SDS011;9059;49.934;8.650;2024-01-25T11:36:26;9.30;;;1.48;;
17866;SDS011;9059;49.934;8.650;2024-01-25T11:46:31;14.18;;;1.77;;
17866;SDS011;9059;49.934;8.650;2024-01-25T11:56:39;17.73;;;2.03;;
17866;SDS011;9059;49.934;8.650;2024-01-25T12:06:45;13.98;;;2.08;;
17866;SDS011;9059;49.934;8.650;2024-01-25T12:16:48;12.77;;;3.20;;
17866;SDS011;9059;49.934;8.650;2024-01-25T12:26:54;11.07;;;1.67;;
17866;SDS011;9059;49.934;8.650;2024-01-25T12:36:57;15.47;;;2.57;;
17866;SDS011;9059;49.934;8.650;2024-01-25T12:47:02;12.70;;;2.33;;
17866;SDS011;9059;49.934;8.650;2024-01-25T12:57:08;15.30;;;2.33;;
17866;SDS011;9059;49.934;8.650;2024-01-25T13:07:12;20.15;;;2.17;;
17866;SDS011;9059;49.934;8.650;2024-01-25T13:17:15;14.82;;;2.78;;
17866;SDS011;9059;49.934;8.650;2024-01-25T13:27:19;12.52;;;1.65;;
17866;SDS011;9059;49.934;8.650;2024-01-25T13:37:22;15.38;;;2.72;;
17866;SDS011;9059;49.934;8.650;2024-01-25T13:47:26;7.95;;;1.75;;
17866;SDS011;9059;49.934;8.650;2024-01-25T13:57:30;13.00;;;1.70;;
17866;SDS011;9059;49.934;8.650;2024-01-25T14:07:34;16.08;;;2.22;;
17866;SDS011;9059;49.934;8.650;2024-01-25T14:17:37;17.55;;;2.22;;
17866;SDS011;9059;49.934;8.650;2024-01-25T14:27:42;8.80;;;1.73;;
17866;SDS011;9059;49.934;8.650;2024-01-25T14:37:45;11.75;;;1.98;;
17866;SDS011;9059;49.934;8.650;2024-01-25T14:47:49;12.52;;;1.83;;
17866;SDS011;9059;49.934;8.650;2024-01-25T14:57:52;13.25;;;1.95;;
17866;SDS011;9059;49.934;8.650;2024-01-25T15:07:56;9.13;;;2.00;;
17866;SDS011;9059;49.934;8.650;2024-01-25T15:18:04;9.73;;;1.90;;
17866;SDS011;9059;49.934;8.650;2024-01-25T15:28:08;9.10;;;2.13;;
17866;SDS011;9059;49.934;8.650;2024-01-25T15:38:11;17.38;;;2.53;;
17866;SDS011;9059;49.934;8.650;2024-01-25T15:48:18;11.18;;;2.75;;
17866;SDS011;9059;49.934;8.650;2024-01-25T15:58:21;13.05;;;2.90;;
17866;SDS011;9059;49.934;8.650;2024-01-25T16:08:25;16.20;;;3.20;;
17866;SDS011;9059;49.934;8.650;2024-01-25T16:18:28;11.63;;;1.67;;
17866;SDS011;9059;49.934;8.650;2024-01-25T16:28:32;12.93;;;1.98;;
17866;SDS011;9059;49.934;8.650;2024-01-25T16:38:35;8.93;;;1.80;;
17866;SDS011;9059;49.934;8.650;2024-01-25T16:48:39;19.42;;;3.42;;
17866;SDS011;9059;49.934;8.650;2024-01-25T16:58:42;10.25;;;2.15;;
17866;SDS011;9059;49.934;8.650;2024-01-25T17:08:47;15.05;;;2.28;;
17866;SDS011;9059;49.934;8.650;2024-01-25T17:18:50;16.95;;;3.03;;
17866;SDS011;9059;49.934;8.650;2024-01-25T17:28:56;17.65;;;4.22;;
17866;SDS011;9059;49.934;8.650;2024-01-25T17:38:59;13.82;;;2.75;;
17866;SDS011;9059;49.934;8.650;2024-01-25T17:49:04;9.70;;;3.00;;
17866;SDS011;9059;49.934;8.650;2024-01-25T17:59:07;11.98;;;2.97;;
17866;SDS011;9059;49.934;8.650;2024-01-25T18:09:11;11.38;;;2.20;;
17866;SDS011;9059;49.934;8.650;2024-01-25T18:19:14;10.77;;;2.00;;
17866;SDS011;9059;49.934;8.650;2024-01-25T18:29:18;12.50;;;2.35;;
17866;SDS011;9059;49.934;8.650;2024-01-25T18:39:22;21.98;;;2.40;;
17866;SDS011;9059;49.934;8.650;2024-01-25T18:49:27;10.45;;;1.90;;
17866;SDS011;9059;49.934;8.650;2024-01-25T18:59:30;11.00;;;2.10;;
17866;SDS011;9059;49.934;8.650;2024-01-25T19:09:34;12.52;;;2.42;;
17866;SDS011;9059;49.934;8.650;2024-01-25T19:19:39;9.75;;;1.70;;
17866;SDS011;9059;49.934;8.650;2024-01-25T19:29:43;19.38;;;3.40;;
17866;SDS011;9059;49.934;8.650;2024-01-25T19:39:47;13.52;;;2.75;;
17866;SDS011;9059;49.934;8.650;2024-01-25T19:49:51;14.35;;;3.50;;
17866;SDS011;9059;49.934;8.650;2024-01-25T19:59:54;7.90;;;2.28;;
17866;SDS011;9059;49.934;8.650;2024-01-25T20:09:59;18.27;;;4.17;;
17866;SDS011;9059;49.934;8.650;2024-01-25T20:20:02;14.18;;;2.53;;
17866;SDS011;9059;49.934;8.650;2024-01-25T20:30:08;14.65;;;2.90;;
17866;SDS011;9059;49.934;8.650;2024-01-25T20:40:11;14.23;;;3.30;;
17866;SDS011;9059;49.934;8.650;2024-01-25T20:50:15;12.88;;;2.60;;
17866;SDS011;9059;49.934;8.650;2024-01-25T21:00:34;13.32;;;2.75;;
17866;SDS011;9059;49.934;8.650;2024-01-25T21:10:39;9.80;;;2.63;;
17866;SDS011;9059;49.934;8.650;2024-01-25T21:20:43;12.43;;;3.17;;
17866;SDS011;9059;49.934;8.650;2024-01-25T21:30:47;8.02;;;2.90;;
17866;SDS011;9059;49.934;8.650;2024-01-25T21:40:50;8.27;;;3.72;;
17866;SDS011;9059;49.934;8.650;2024-01-25T21:50:55;6.05;;;2.63;;
17866;SDS011;9059;49.934;8.650;2024-01-25T22:00:58;9.13;;;3.70;;
17866;SDS011;9059;49.934;8.650;2024-01-25T22:11:03;8.75;;;3.85;;
17866;SDS011;9059;49.934;8.650;2024-01-25T22:21:06;13.05;;;4.03;;
17866;SDS011;9059;49.934;8.650;2024-01-25T22:31:10;8.15;;;3.70;;
17866;SDS011;9059;49.934;8.650;2024-01-25T22:41:13;11.45;;;4.78;;
17866;SDS011;9059;49.934;8.650;2024-01-25T22:51:17;10.55;;;4.20;;
17866;SDS011;9059;49.934;8.650;2024-01-25T23:01:20;12.52;;;5.18;;
17866;SDS011;9059;49.934;8.650;2024-01-25T23:11:25;10.68;;;4.38;;
17866;SDS011;9059;49.934;8.650;2024-01-25T23:21:31;11.32;;;4.90;;
17866;SDS011;9059;49.934;8.650;2024-01-25T23:31:35;10.43;;;5.18;;
17866;SDS011;9059;49.934;8.650;2024-01-25T23:41:38;13.93;;;5.05;;
17866;SDS011;9059;49.934;8.650;2024-01-25T23:51:43;10.15;;;4.68;;
